Time;durP1;ratioP1;P1;durP2;ratioP2;P2;SDS_P1;SDS_P2;PMS_P1;PMS_P2;Temp;Humidity;BMP_temperature;BMP_pressure;BME280_temperature;BME280_humidity;BME280_pressure;Samples;Min_cycle;Max_cycle;Signal;HPM_P1;HPM_P2
2023/05/15 00:00:14;;;;;;;23.23;16.58;;;11.60;99.90;;;;;;4975431;28;20037;-90
2023/05/15 00:02:39;;;;;;;22.80;15.57;;;11.60;99.90;;;;;;4974456;28;20031;-91
2023/05/15 00:05:06;;;;;;;25.70;16.65;;;11.60;99.90;;;;;;4974754;28;20049;-91
2023/05/15 00:07:32;;;;;;;25.83;15.63;;;11.60;99.90;;;;;;4973703;28;20069;-91
2023/05/15 00:09:58;;;;;;;28.48;16.13;;;11.60;99.90;;;;;;4975553;28;20021;-91
2023/05/15 00:12:23;;;;;;;28.85;15.25;;;11.50;99.90;;;;;;4975048;28;20034;-90
2023/05/15 00:14:49;;;;;;;25.92;16.58;;;11.60;99.90;;;;;;4971056;28;20031;-90
2023/05/15 00:17:14;;;;;;;26.20;15.13;;;11.60;99.90;;;;;;4970213;28;20066;-90
2023/05/15 00:19:40;;;;;;;26.25;15.60;;;11.50;99.90;;;;;;4962492;28;20030;-91
2023/05/15 00:22:06;;;;;;;24.92;15.75;;;11.50;99.90;;;;;;4975195;28;20027;-90
2023/05/15 00:24:31;;;;;;;20.75;14.75;;;11.50;99.90;;;;;;4970138;28;20053;-90
2023/05/15 00:26:58;;;;;;;25.73;16.45;;;11.50;99.90;;;;;;4980010;28;20041;-90
2023/05/15 00:29:24;;;;;;;23.63;15.85;;;11.40;99.90;;;;;;4984417;28;20034;-90
2023/05/15 00:31:50;;;;;;;23.73;15.88;;;11.40;99.90;;;;;;4979701;28;20509;-90
2023/05/15 00:34:15;;;;;;;25.40;15.57;;;11.40;99.90;;;;;;4975326;28;20023;-90
2023/05/15 00:36:41;;;;;;;26.13;15.05;;;11.30;99.90;;;;;;4979380;28;20041;-90
2023/05/15 00:39:06;;;;;;;25.60;15.02;;;11.30;99.90;;;;;;4979587;28;20042;-91
2023/05/15 00:41:34;;;;;;;23.67;16.10;;;11.20;99.90;;;;;;4979025;28;20078;-90
2023/05/15 00:44:01;;;;;;;25.10;15.93;;;11.20;99.90;;;;;;4977617;28;20074;-90
2023/05/15 00:46:30;;;;;;;27.70;15.68;;;11.10;99.90;;;;;;4987773;28;20023;-91
2023/05/15 00:48:56;;;;;;;20.85;14.07;;;11.10;99.90;;;;;;4976675;28;20043;-90
2023/05/15 00:51:22;;;;;;;22.35;15.05;;;11.00;99.90;;;;;;4983518;28;20100;-90
2023/05/15 00:53:53;;;;;;;26.02;16.15;;;10.90;99.90;;;;;;4978752;28;20058;-91
2023/05/15 00:56:20;;;;;;;30.00;16.15;;;11.00;99.90;;;;;;4978899;28;20137;-91
2023/05/15 00:58:48;;;;;;;23.20;15.88;;;10.90;99.90;;;;;;4982727;28;20070;-90
2023/05/15 01:01:15;;;;;;;25.38;15.20;;;10.90;99.90;;;;;;4973166;28;21344;-91
2023/05/15 01:03:42;;;;;;;25.25;15.38;;;11.00;99.90;;;;;;4981627;28;20032;-91
2023/05/15 01:06:08;;;;;;;26.67;16.38;;;10.90;99.90;;;;;;4975750;28;20057;-91
2023/05/15 01:08:48;;;;;;;24.98;15.93;;;10.90;99.90;;;;;;4989431;28;20042;-91
2023/05/15 01:11:15;;;;;;;28.63;16.23;;;10.90;99.90;;;;;;4982395;28;20026;-91
2023/05/15 01:13:41;;;;;;;26.02;15.45;;;10.90;99.90;;;;;;4978229;28;20113;-90
2023/05/15 01:16:08;;;;;;;27.08;16.38;;;10.90;99.90;;;;;;4978421;28;20074;-91
2023/05/15 01:18:34;;;;;;;26.95;15.88;;;10.90;99.90;;;;;;4975290;28;20486;-90
2023/05/15 01:21:08;;;;;;;26.02;17.35;;;10.80;99.90;;;;;;4978506;28;20029;-90
2023/05/15 01:23:40;;;;;;;25.88;17.13;;;10.80;99.90;;;;;;4982670;28;20034;-90
2023/05/15 01:26:37;;;;;;;26.48;16.42;;;10.80;99.90;;;;;;4981485;28;20019;-90
2023/05/15 01:29:28;;;;;;;29.55;17.67;;;10.70;99.90;;;;;;4979813;28;20073;-90
2023/05/15 01:32:02;;;;;;;25.75;15.98;;;10.70;99.90;;;;;;4979880;28;20034;-90
2023/05/15 01:34:37;;;;;;;32.95;18.80;;;10.70;99.90;;;;;;4977370;28;20031;-90
2023/05/15 01:37:03;;;;;;;27.88;18.17;;;10.60;99.90;;;;;;4983385;28;20141;-90
2023/05/15 01:39:32;;;;;;;36.13;19.35;;;10.60;99.90;;;;;;4978013;28;20042;-90
2023/05/15 01:42:09;;;;;;;32.22;18.90;;;10.60;99.90;;;;;;5002513;28;20049;-90
2023/05/15 01:44:39;;;;;;;30.92;19.75;;;10.60;99.90;;;;;;4971096;28;20483;-90
2023/05/15 01:47:11;;;;;;;38.35;20.17;;;10.60;99.90;;;;;;4976070;28;20094;-90
2023/05/15 01:49:38;;;;;;;35.22;20.25;;;10.60;99.90;;;;;;4980528;28;20089;-90
2023/05/15 01:52:33;;;;;;;30.13;19.45;;;10.60;99.90;;;;;;4981682;28;20094;-90
2023/05/15 01:55:01;;;;;;;30.48;19.33;;;10.60;99.90;;;;;;4966322;28;20042;-90
2023/05/15 01:57:28;;;;;;;31.77;19.40;;;10.50;99.90;;;;;;4980742;28;20030;-91
2023/05/15 01:59:54;;;;;;;34.47;20.30;;;10.50;99.90;;;;;;4977485;28;20030;-90
2023/05/15 02:02:21;;;;;;;39.88;21.88;;;10.50;99.90;;;;;;4976081;28;20126;-91
2023/05/15 02:04:48;;;;;;;31.55;19.38;;;10.50;99.90;;;;;;4976118;28;20033;-91
2023/05/15 02:07:15;;;;;;;31.65;20.27;;;10.40;99.90;;;;;;4961214;28;20034;-91
2023/05/15 02:09:41;;;;;;;32.53;20.77;;;10.40;99.90;;;;;;4977231;28;20041;-90
2023/05/15 02:12:09;;;;;;;37.05;20.20;;;10.40;99.90;;;;;;4977138;28;20379;-91
2023/05/15 02:14:36;;;;;;;31.63;21.17;;;10.40;99.90;;;;;;4978119;28;20099;-91
2023/05/15 02:17:02;;;;;;;41.40;22.58;;;10.40;99.90;;;;;;4977328;28;20098;-91
2023/05/15 02:19:28;;;;;;;41.10;23.33;;;10.30;99.90;;;;;;4994946;28;20030;-90
2023/05/15 02:21:53;;;;;;;49.10;22.42;;;10.40;99.90;;;;;;4981707;28;20030;-91
2023/05/15 02:24:19;;;;;;;36.00;22.27;;;10.30;99.90;;;;;;4976294;28;20132;-91
2023/05/15 02:27:01;;;;;;;41.45;22.35;;;10.30;99.90;;;;;;4976992;28;20109;-91
2023/05/15 02:29:41;;;;;;;;;;;10.30;99.90;;;;;;4982512;28;20438;-91
2023/05/15 02:32:19;;;;;;;39.25;20.30;;;10.20;99.90;;;;;;4986494;28;19910;-90
2023/05/15 02:34:53;;;;;;;41.50;22.88;;;10.10;99.90;;;;;;4987765;28;20026;-91
2023/05/15 02:37:26;;;;;;;45.03;24.10;;;10.10;99.90;;;;;;4976581;28;20026;-91
2023/05/15 02:39:54;;;;;;;37.92;22.55;;;10.00;99.90;;;;;;4989127;28;20049;-91
2023/05/15 02:42:20;;;;;;;39.17;22.05;;;10.00;99.90;;;;;;4967815;28;20046;-91
2023/05/15 02:44:47;;;;;;;43.67;23.88;;;10.00;99.90;;;;;;4969950;28;20645;-91
2023/05/15 02:47:13;;;;;;;48.22;24.88;;;10.00;99.90;;;;;;4973072;28;20074;-91
2023/05/15 02:49:39;;;;;;;44.92;24.80;;;10.00;99.90;;;;;;4974154;28;20505;-91
2023/05/15 02:52:05;;;;;;;52.03;27.33;;;10.00;99.90;;;;;;4986629;28;20030;-91
2023/05/15 02:54:31;;;;;;;52.38;28.58;;;10.00;99.90;;;;;;4976651;28;20033;-91
2023/05/15 02:56:56;;;;;;;52.67;27.38;;;10.00;99.90;;;;;;4973236;28;20439;-92
2023/05/15 02:59:22;;;;;;;49.72;28.95;;;10.00;99.90;;;;;;4971596;28;20065;-91
2023/05/15 03:01:48;;;;;;;55.63;31.40;;;10.00;99.90;;;;;;4971047;28;20030;-91
2023/05/15 03:04:14;;;;;;;54.35;30.48;;;10.00;99.90;;;;;;4988001;28;20105;-90
2023/05/15 03:06:39;;;;;;;51.75;32.20;;;10.10;99.90;;;;;;4969675;28;20033;-91
2023/05/15 03:09:05;;;;;;;64.95;37.30;;;10.20;99.90;;;;;;4970110;28;20030;-91
2023/05/15 03:11:30;;;;;;;66.45;38.40;;;10.20;99.90;;;;;;4980497;28;20054;-91
2023/05/15 03:13:58;;;;;;;69.00;40.10;;;10.30;99.90;;;;;;4974759;28;20116;-91
2023/05/15 03:16:23;;;;;;;71.50;39.72;;;10.30;99.90;;;;;;4976981;28;20506;-91
2023/05/15 03:18:49;;;;;;;73.35;41.13;;;10.40;99.90;;;;;;4975892;28;20077;-91
2023/05/15 03:21:14;;;;;;;73.43;41.72;;;10.40;99.90;;;;;;4985729;28;20092;-91
2023/05/15 03:23:40;;;;;;;80.18;43.05;;;10.40;99.90;;;;;;4973026;28;20022;-91
2023/05/15 03:26:05;;;;;;;85.45;44.80;;;10.40;99.90;;;;;;4974040;28;20422;-91
2023/05/15 03:28:31;;;;;;;76.15;41.38;;;10.50;99.90;;;;;;4975696;28;20506;-91
2023/05/15 03:30:57;;;;;;;85.35;42.38;;;10.50;99.90;;;;;;4982794;28;20022;-88
2023/05/15 03:33:22;;;;;;;81.03;40.97;;;10.60;99.90;;;;;;4972421;28;20478;-91
2023/05/15 03:35:49;;;;;;;85.05;39.95;;;10.70;99.90;;;;;;4975327;28;20045;-92
2023/05/15 03:38:15;;;;;;;86.63;40.67;;;10.70;99.90;;;;;;4972383;28;20857;-91
2023/05/15 03:40:41;;;;;;;81.90;38.20;;;10.70;99.90;;;;;;4975977;28;20046;-91
2023/05/15 03:43:06;;;;;;;89.53;37.75;;;10.80;99.90;;;;;;4977917;28;20026;-91
2023/05/15 03:45:35;;;;;;;80.47;37.17;;;10.80;99.90;;;;;;4971877;28;20114;-91
2023/05/15 03:48:01;;;;;;;78.80;36.25;;;10.90;99.90;;;;;;4981823;28;20085;-91
2023/05/15 03:50:26;;;;;;;78.43;35.67;;;10.90;99.90;;;;;;4995169;28;20026;-91
2023/05/15 03:52:52;;;;;;;68.72;33.25;;;10.80;99.90;;;;;;4989036;28;20045;-91
2023/05/15 03:55:17;;;;;;;69.55;31.75;;;10.80;99.90;;;;;;4964839;28;20029;-91
2023/05/15 03:57:43;;;;;;;69.75;32.22;;;10.70;99.90;;;;;;4975416;28;20121;-92
2023/05/15 04:00:09;;;;;;;73.22;31.60;;;10.70;99.90;;;;;;4992567;28;20026;-90
2023/05/15 04:02:36;;;;;;;71.07;32.92;;;10.60;99.90;;;;;;4973970;28;20041;-91
2023/05/15 04:05:03;;;;;;;70.35;31.20;;;10.60;99.90;;;;;;4993528;28;20031;-90
2023/05/15 04:07:30;;;;;;;74.57;31.02;;;10.50;99.90;;;;;;4990131;28;20057;-91
2023/05/15 04:09:55;;;;;;;71.93;31.20;;;10.40;99.90;;;;;;4993219;28;20033;-90
2023/05/15 04:12:21;;;;;;;72.15;30.83;;;10.40;99.90;;;;;;4979610;28;20422;-91
2023/05/15 04:14:47;;;;;;;64.18;31.38;;;10.40;99.90;;;;;;4979540;28;20030;-91
2023/05/15 04:17:12;;;;;;;65.60;30.77;;;10.40;99.90;;;;;;4978657;28;20022;-91
2023/05/15 04:19:39;;;;;;;67.60;30.20;;;10.30;99.90;;;;;;4985779;28;20029;-90
2023/05/15 04:22:05;;;;;;;63.13;31.83;;;10.30;99.90;;;;;;4979093;28;20023;-91
2023/05/15 04:24:30;;;;;;;67.68;30.58;;;10.30;99.90;;;;;;4987129;28;20093;-90
2023/05/15 04:26:56;;;;;;;67.80;30.92;;;10.30;99.90;;;;;;4984394;28;20062;-91
2023/05/15 04:29:21;;;;;;;65.72;30.42;;;10.20;99.90;;;;;;4977599;28;20026;-91
2023/05/15 04:31:47;;;;;;;67.70;30.70;;;10.20;99.90;;;;;;4977299;28;20030;-91
2023/05/15 04:34:12;;;;;;;67.97;30.80;;;10.20;99.90;;;;;;4978842;28;20033;-90
2023/05/15 04:36:38;;;;;;;67.38;30.27;;;10.20;99.90;;;;;;4981339;28;20033;-91
2023/05/15 04:39:04;;;;;;;77.97;32.17;;;10.20;99.90;;;;;;4996683;28;20029;-91
2023/05/15 04:41:32;;;;;;;77.93;32.85;;;10.30;99.90;;;;;;4978998;28;20038;-90
2023/05/15 04:43:57;;;;;;;79.28;33.35;;;10.30;99.90;;;;;;4978070;28;20121;-90
2023/05/15 04:46:23;;;;;;;87.13;36.33;;;10.40;99.90;;;;;;4981826;28;20562;-91
2023/05/15 04:48:48;;;;;;;81.32;35.13;;;10.40;99.90;;;;;;4973796;28;20121;-90
2023/05/15 04:51:14;;;;;;;79.30;34.03;;;10.50;99.90;;;;;;4994854;28;20026;-90
2023/05/15 04:53:39;;;;;;;74.90;33.35;;;10.40;99.90;;;;;;4990462;28;20033;-90
2023/05/15 04:56:05;;;;;;;72.32;33.17;;;10.50;99.90;;;;;;4994820;28;20077;-90
2023/05/15 04:58:30;;;;;;;79.70;35.38;;;10.60;99.90;;;;;;4986944;28;20077;-91
2023/05/15 05:00:56;;;;;;;80.80;34.60;;;10.60;99.90;;;;;;4978879;28;20026;-91
2023/05/15 05:03:21;;;;;;;88.00;37.10;;;10.60;99.90;;;;;;4988576;28;20027;-91
2023/05/15 05:05:48;;;;;;;89.03;37.55;;;10.60;99.90;;;;;;4979808;28;20446;-90
2023/05/15 05:08:13;;;;;;;85.30;38.10;;;10.70;99.90;;;;;;4981458;28;20042;-91
2023/05/15 05:10:39;;;;;;;81.63;38.40;;;10.80;99.90;;;;;;4978160;28;21012;-90
2023/05/15 05:13:05;;;;;;;81.93;38.47;;;10.70;99.90;;;;;;4975911;28;20026;-91
2023/05/15 05:15:30;;;;;;;87.82;40.53;;;10.80;99.90;;;;;;4977706;28;20053;-91
2023/05/15 05:17:56;;;;;;;83.07;38.22;;;10.80;99.90;;;;;;4978695;28;20034;-90
2023/05/15 05:20:21;;;;;;;77.63;38.30;;;10.70;99.90;;;;;;4978614;28;20026;-91
2023/05/15 05:22:47;;;;;;;69.93;35.25;;;10.70;99.90;;;;;;4977528;28;20030;-91
2023/05/15 05:25:13;;;;;;;73.40;35.50;;;10.60;99.90;;;;;;4985421;28;20022;-91
2023/05/15 05:27:38;;;;;;;74.20;37.95;;;10.60;99.90;;;;;;4967794;28;20121;-90
2023/05/15 05:30:04;;;;;;;78.18;37.95;;;10.50;99.90;;;;;;4977890;28;20038;-89
2023/05/15 05:32:30;;;;;;;80.50;39.58;;;10.50;99.90;;;;;;4976667;28;20092;-89
2023/05/15 05:34:56;;;;;;;75.88;38.90;;;10.50;99.90;;;;;;4977687;28;20485;-89
2023/05/15 05:37:21;;;;;;;77.68;39.55;;;10.70;99.90;;;;;;4975573;28;20126;-89
2023/05/15 05:39:46;;;;;;;72.60;36.30;;;10.80;99.90;;;;;;4982094;28;20080;-89
2023/05/15 05:42:12;;;;;;;65.78;36.70;;;11.00;99.90;;;;;;4977571;28;20034;-89
2023/05/15 05:44:37;;;;;;;66.10;34.83;;;11.00;99.90;;;;;;4974510;28;20030;-89
2023/05/15 05:47:03;;;;;;;66.45;35.00;;;10.90;99.90;;;;;;4980681;28;20029;-89
2023/05/15 05:49:29;;;;;;;69.47;35.97;;;10.90;99.90;;;;;;4974635;28;20034;-89
2023/05/15 05:51:55;;;;;;;66.00;34.22;;;10.90;99.90;;;;;;4977029;28;20054;-88
2023/05/15 05:54:20;;;;;;;72.90;37.03;;;10.90;99.90;;;;;;4979548;28;20041;-89
2023/05/15 05:56:46;;;;;;;71.63;36.28;;;10.90;99.90;;;;;;4974016;28;20506;-90
2023/05/15 05:59:11;;;;;;;68.50;35.90;;;11.00;99.90;;;;;;4983770;28;20018;-89
2023/05/15 06:01:37;;;;;;;70.15;36.42;;;11.00;99.90;;;;;;4979093;28;20026;-89
2023/05/15 06:04:03;;;;;;;69.07;36.10;;;11.00;99.90;;;;;;4978528;28;20026;-90
2023/05/15 06:06:28;;;;;;;66.90;36.45;;;11.00;99.90;;;;;;4980232;28;20030;-88
2023/05/15 06:08:54;;;;;;;68.75;36.08;;;11.10;99.90;;;;;;4975686;28;20117;-88
2023/05/15 06:11:20;;;;;;;68.53;35.97;;;11.10;99.90;;;;;;4976783;28;20073;-88
2023/05/15 06:13:46;;;;;;;74.10;38.83;;;11.20;99.90;;;;;;4977440;28;20031;-88
2023/05/15 06:16:11;;;;;;;72.80;38.22;;;11.30;99.90;;;;;;4973925;28;20113;-88
2023/05/15 06:18:37;;;;;;;74.00;38.65;;;11.40;99.90;;;;;;4977373;28;20407;-88
2023/05/15 06:21:02;;;;;;;76.00;39.05;;;11.40;99.90;;;;;;4977743;28;20113;-88
2023/05/15 06:23:28;;;;;;;73.03;40.92;;;11.50;99.90;;;;;;4978103;28;20151;-88
2023/05/15 06:25:53;;;;;;;80.93;42.55;;;11.60;99.90;;;;;;4978249;28;20025;-88
2023/05/15 06:28:19;;;;;;;78.82;43.38;;;11.60;99.90;;;;;;4977015;28;20042;-88
2023/05/15 06:30:44;;;;;;;79.30;42.75;;;11.70;99.90;;;;;;4975150;28;20342;-88
2023/05/15 06:33:10;;;;;;;79.10;43.25;;;11.70;99.90;;;;;;4974602;28;20026;-88
2023/05/15 06:35:35;;;;;;;77.70;42.17;;;11.90;99.90;;;;;;4973341;28;20050;-88
2023/05/15 06:38:01;;;;;;;85.28;44.67;;;11.90;99.90;;;;;;4977173;28;20485;-88
2023/05/15 06:40:26;;;;;;;82.60;44.58;;;12.00;99.90;;;;;;4974394;28;20114;-87
2023/05/15 06:42:55;;;;;;;82.93;43.30;;;12.00;99.90;;;;;;4977964;28;20549;-88
2023/05/15 06:45:20;;;;;;;76.25;42.05;;;12.10;99.90;;;;;;4966400;28;20019;-88
2023/05/15 06:47:46;;;;;;;79.72;42.05;;;12.20;99.90;;;;;;4977018;28;20421;-87
2023/05/15 06:50:11;;;;;;;79.57;42.67;;;12.30;99.90;;;;;;4983095;28;20061;-87
2023/05/15 06:52:37;;;;;;;72.70;40.35;;;12.50;99.90;;;;;;4972717;28;20483;-87
2023/05/15 06:55:03;;;;;;;73.78;40.05;;;12.60;99.90;;;;;;4977013;28;20490;-88
2023/05/15 06:57:28;;;;;;;70.22;40.13;;;12.80;99.90;;;;;;4976000;28;20490;-87
2023/05/15 06:59:54;;;;;;;70.43;39.13;;;12.90;99.90;;;;;;4982268;28;20022;-87
2023/05/15 07:02:19;;;;;;;73.60;41.05;;;12.80;99.90;;;;;;4966556;28;20038;-88
2023/05/15 07:04:45;;;;;;;69.28;40.92;;;12.90;99.90;;;;;;4979316;28;20026;-87
2023/05/15 07:07:10;;;;;;;65.80;39.22;;;13.00;99.90;;;;;;4978613;28;20031;-87
2023/05/15 07:09:36;;;;;;;64.45;37.17;;;13.20;99.90;;;;;;4972896;28;20100;-87
2023/05/15 07:12:02;;;;;;;66.85;39.60;;;13.30;99.90;;;;;;4976434;28;20368;-87
2023/05/15 07:14:28;;;;;;;71.00;40.53;;;13.40;99.90;;;;;;4975037;28;20058;-87
2023/05/15 07:16:53;;;;;;;64.03;39.33;;;13.50;99.90;;;;;;4985977;28;20034;-87
2023/05/15 07:19:19;;;;;;;61.65;38.58;;;13.60;99.90;;;;;;4972017;28;20026;-88
2023/05/15 07:21:45;;;;;;;61.17;38.35;;;13.60;99.90;;;;;;4971013;28;20382;-88
2023/05/15 07:24:10;;;;;;;63.33;40.47;;;13.80;99.90;;;;;;4980318;28;20029;-88
2023/05/15 07:26:36;;;;;;;56.22;37.22;;;13.80;99.90;;;;;;4978279;28;20027;-88
2023/05/15 07:29:02;;;;;;;60.47;39.05;;;13.70;99.90;;;;;;4981679;28;20093;-88
2023/05/15 07:31:30;;;;;;;59.03;38.47;;;13.70;99.90;;;;;;4982895;28;20023;-88
2023/05/15 07:33:55;;;;;;;64.03;39.72;;;13.60;99.90;;;;;;4977860;28;20030;-88
2023/05/15 07:36:21;;;;;;;60.30;37.13;;;13.70;99.90;;;;;;4978027;28;20113;-88
2023/05/15 07:38:46;;;;;;;57.72;38.25;;;13.70;99.90;;;;;;4980910;28;20041;-87
2023/05/15 07:41:12;;;;;;;48.92;34.92;;;13.90;99.90;;;;;;4977939;28;20206;-86
2023/05/15 07:43:37;;;;;;;49.25;33.33;;;14.10;99.90;;;;;;4968232;28;20038;-88
2023/05/15 07:46:03;;;;;;;46.15;33.30;;;14.10;99.90;;;;;;4978642;28;20050;-88
2023/05/15 07:48:28;;;;;;;45.22;31.00;;;14.20;99.90;;;;;;4978339;28;20557;-88
2023/05/15 07:50:55;;;;;;;42.88;31.40;;;14.20;99.90;;;;;;4978073;28;20027;-88
2023/05/15 07:53:21;;;;;;;39.10;29.35;;;14.30;99.90;;;;;;4978232;28;20077;-88
2023/05/15 07:55:47;;;;;;;40.72;28.42;;;14.50;99.90;;;;;;4979241;28;20022;-88
2023/05/15 07:58:13;;;;;;;39.40;27.13;;;14.60;99.90;;;;;;4977623;28;20035;-88
2023/05/15 08:00:38;;;;;;;33.67;26.50;;;14.80;99.90;;;;;;4994839;28;20027;-88
2023/05/15 08:03:04;;;;;;;32.63;26.00;;;14.90;99.90;;;;;;4976748;28;20046;-88
2023/05/15 08:05:30;;;;;;;33.47;25.73;;;14.90;99.90;;;;;;4990104;28;20905;-88
2023/05/15 08:07:55;;;;;;;28.85;22.95;;;14.80;99.90;;;;;;4980026;28;20347;-88
2023/05/15 08:10:21;;;;;;;31.45;23.27;;;14.80;99.90;;;;;;4978287;28;20117;-88
2023/05/15 08:12:47;;;;;;;29.17;23.52;;;14.80;99.90;;;;;;4980772;28;20037;-87
2023/05/15 08:15:13;;;;;;;27.67;22.52;;;14.90;99.90;;;;;;4977944;28;20050;-88
2023/05/15 08:17:39;;;;;;;27.42;21.85;;;15.00;99.90;;;;;;4978761;28;20034;-88
2023/05/15 08:20:06;;;;;;;25.83;21.45;;;15.00;99.90;;;;;;4978109;28;20023;-88
2023/05/15 08:22:31;;;;;;;26.65;21.10;;;15.10;99.90;;;;;;4977860;28;20510;-88
2023/05/15 08:24:58;;;;;;;30.02;23.30;;;15.30;99.90;;;;;;4989497;28;20018;-88
2023/05/15 08:27:23;;;;;;;27.98;21.98;;;15.30;99.90;;;;;;4989057;28;20196;-90
2023/05/15 08:29:49;;;;;;;28.20;22.02;;;15.40;99.90;;;;;;4965508;28;20030;-90
2023/05/15 08:32:14;;;;;;;30.48;22.65;;;15.40;99.90;;;;;;4969533;28;20018;-90
2023/05/15 08:34:40;;;;;;;26.00;21.30;;;15.60;99.90;;;;;;4974361;28;20038;-89
2023/05/15 08:37:06;;;;;;;23.70;20.23;;;15.70;99.90;;;;;;4976302;28;20394;-89
2023/05/15 08:39:31;;;;;;;23.33;19.70;;;15.80;99.90;;;;;;4974650;28;20077;-90
2023/05/15 08:42:06;;;;;;;24.45;20.75;;;15.90;99.90;;;;;;4975775;28;20058;-90
2023/05/15 08:44:32;;;;;;;27.55;22.63;;;16.10;99.90;;;;;;4970923;28;20393;-88
2023/05/15 08:46:58;;;;;;;24.98;21.35;;;16.30;99.90;;;;;;4975675;28;20053;-87
2023/05/15 08:49:44;;;;;;;28.25;21.70;;;16.40;99.90;;;;;;4975286;28;20102;-87
2023/05/15 08:52:10;;;;;;;27.83;21.23;;;16.70;99.90;;;;;;4981074;28;20030;-89
2023/05/15 08:54:37;;;;;;;30.65;23.45;;;16.70;99.90;;;;;;4979605;28;20030;-90
2023/05/15 08:57:04;;;;;;;26.50;22.60;;;16.70;99.90;;;;;;4985223;28;20027;-87
2023/05/15 08:59:30;;;;;;;28.52;23.27;;;16.80;99.90;;;;;;4978499;28;20030;-88
2023/05/15 09:01:56;;;;;;;30.85;25.55;;;16.80;99.90;;;;;;4974803;28;20023;-88
2023/05/15 09:04:21;;;;;;;31.83;25.45;;;16.80;99.90;;;;;;4970136;28;20023;-88
2023/05/15 09:06:48;;;;;;;31.45;26.85;;;16.70;99.90;;;;;;4975940;28;20054;-88
2023/05/15 09:09:14;;;;;;;35.85;28.42;;;16.70;99.90;;;;;;4970445;28;20121;-88
2023/05/15 09:11:44;;;;;;;36.10;27.95;;;16.80;99.90;;;;;;4978399;28;20092;-87
2023/05/15 09:14:10;;;;;;;39.08;28.42;;;17.10;99.90;;;;;;4979335;28;20030;-87
2023/05/15 09:16:36;;;;;;;30.98;24.60;;;17.40;99.90;;;;;;4983537;28;20386;-88
2023/05/15 09:19:03;;;;;;;31.40;24.50;;;17.50;99.90;;;;;;4976393;28;20030;-88
2023/05/15 09:21:30;;;;;;;24.10;21.50;;;17.50;99.90;;;;;;4970657;28;20110;-90
2023/05/15 09:24:18;;;;;;;27.05;22.58;;;17.50;99.90;;;;;;4974317;28;20026;-89
2023/05/15 09:26:45;;;;;;;25.75;22.98;;;17.50;99.90;;;;;;4978755;28;20034;-88
2023/05/15 09:29:14;;;;;;;28.10;23.70;;;17.60;99.90;;;;;;4974913;28;20088;-89
2023/05/15 09:31:39;;;;;;;27.55;23.50;;;17.70;99.90;;;;;;4980663;28;20023;-89
2023/05/15 09:34:05;;;;;;;28.63;23.20;;;17.80;99.90;;;;;;4978195;28;20034;-88
2023/05/15 09:36:31;;;;;;;30.23;24.52;;;18.00;99.90;;;;;;4977087;28;20132;-89
2023/05/15 09:39:01;;;;;;;24.38;21.67;;;18.00;99.90;;;;;;4982569;28;20034;-89
2023/05/15 09:41:27;;;;;;;26.42;21.65;;;18.00;99.90;;;;;;4973550;28;20134;-90
2023/05/15 09:43:55;;;;;;;26.60;22.65;;;18.10;99.90;;;;;;4971788;28;20058;-89
2023/05/15 09:46:22;;;;;;;26.15;22.38;;;18.30;99.90;;;;;;4980103;28;20509;-90
2023/05/15 09:48:48;;;;;;;24.73;22.05;;;18.20;99.90;;;;;;4974497;28;20034;-90
2023/05/15 09:51:16;;;;;;;28.58;22.20;;;18.30;99.90;;;;;;4976342;28;20065;-89
2023/05/15 09:53:46;;;;;;;28.05;22.40;;;18.20;99.90;;;;;;4971476;28;20041;-89
2023/05/15 09:56:11;;;;;;;23.48;20.52;;;18.10;99.90;;;;;;4972697;28;20029;-89
2023/05/15 09:58:37;;;;;;;21.10;18.65;;;17.90;99.90;;;;;;4977744;28;20031;-90
2023/05/15 10:01:09;;;;;;;23.40;20.15;;;17.90;99.90;;;;;;4975889;28;20018;-89
2023/05/15 10:03:34;;;;;;;23.90;18.98;;;18.00;99.90;;;;;;4977694;28;20129;-90
2023/05/15 10:06:02;;;;;;;25.88;20.83;;;18.00;99.90;;;;;;4973426;28;20230;-88
2023/05/15 10:08:28;;;;;;;23.13;19.30;;;17.80;99.90;;;;;;4974285;28;20068;-90
2023/05/15 10:10:55;;;;;;;24.75;21.02;;;17.60;99.90;;;;;;4974784;28;20030;-91
2023/05/15 10:13:22;;;;;;;29.17;23.83;;;17.60;99.90;;;;;;4974119;28;20418;-89
2023/05/15 10:15:48;;;;;;;28.88;23.23;;;17.60;99.90;;;;;;4975554;28;20026;-89
2023/05/15 10:18:16;;;;;;;29.85;23.40;;;17.50;99.90;;;;;;4980605;28;20044;-90
2023/05/15 10:20:42;;;;;;;26.38;22.42;;;17.60;99.90;;;;;;4974228;28;20074;-90
2023/05/15 10:23:09;;;;;;;29.52;22.38;;;17.60;99.90;;;;;;4974308;28;20042;-89
2023/05/15 10:25:43;;;;;;;27.30;22.58;;;17.60;99.90;;;;;;4971973;28;20034;-90
2023/05/15 10:28:10;;;;;;;26.70;23.00;;;17.50;99.90;;;;;;4969910;28;20117;-90
2023/05/15 10:30:36;;;;;;;28.80;23.88;;;17.50;99.90;;;;;;4970468;28;20050;-89
2023/05/15 10:33:03;;;;;;;29.05;24.48;;;17.40;99.90;;;;;;4983967;28;20517;-87
2023/05/15 10:35:30;;;;;;;27.98;23.48;;;17.40;99.90;;;;;;4977517;28;20394;-88
2023/05/15 10:37:56;;;;;;;30.58;24.27;;;17.30;99.90;;;;;;4970609;28;20032;-88
2023/05/15 10:40:22;;;;;;;29.52;24.33;;;17.40;99.90;;;;;;4970376;28;20097;-88
2023/05/15 10:42:48;;;;;;;30.98;24.02;;;17.40;99.90;;;;;;4968786;28;20031;-88
2023/05/15 10:45:14;;;;;;;31.70;23.33;;;17.40;99.90;;;;;;4980233;28;20031;-88
2023/05/15 10:47:41;;;;;;;29.33;23.45;;;17.50;99.90;;;;;;4975802;28;20042;-88
2023/05/15 10:50:08;;;;;;;29.65;24.50;;;17.50;99.90;;;;;;4976599;28;20034;-88
2023/05/15 10:52:35;;;;;;;28.05;23.20;;;17.50;99.90;;;;;;4979594;28;20037;-88
2023/05/15 10:55:03;;;;;;;27.88;23.55;;;17.60;99.90;;;;;;4973735;28;21632;-88
2023/05/15 10:57:28;;;;;;;31.35;23.90;;;17.50;99.90;;;;;;4975742;28;20030;-88
2023/05/15 10:59:55;;;;;;;25.98;22.55;;;17.40;99.90;;;;;;4973897;28;20026;-88
2023/05/15 11:02:24;;;;;;;29.90;22.45;;;17.40;99.90;;;;;;4972109;28;20034;-88
2023/05/15 11:04:57;;;;;;;29.48;22.58;;;17.50;99.90;;;;;;4973357;28;20430;-88
2023/05/15 11:07:24;;;;;;;28.42;21.73;;;17.50;99.90;;;;;;4968167;28;20039;-88
2023/05/15 11:09:50;;;;;;;27.88;22.05;;;17.50;99.90;;;;;;4977829;28;20490;-88
2023/05/15 11:12:16;;;;;;;25.23;20.15;;;17.50;99.90;;;;;;4958994;28;20038;-88
2023/05/15 11:15:06;;;;;;;28.77;23.38;;;17.50;99.90;;;;;;4977123;28;20034;-88
2023/05/15 11:17:32;;;;;;;26.30;21.10;;;17.40;99.90;;;;;;4974536;28;20031;-86
2023/05/15 11:19:58;;;;;;;26.95;22.02;;;17.20;99.90;;;;;;4971051;28;20062;-87
2023/05/15 11:22:31;;;;;;;29.80;22.30;;;17.10;99.90;;;;;;4974648;28;20034;-88
2023/05/15 11:25:04;;;;;;;27.90;23.60;;;17.00;99.90;;;;;;4983915;28;20032;-87
2023/05/15 11:27:42;;;;;;;30.42;22.90;;;16.80;99.90;;;;;;4975311;28;20138;-87
2023/05/15 11:30:07;;;;;;;31.85;24.10;;;16.70;99.90;;;;;;4972709;28;20221;-87
2023/05/15 11:32:45;;;;;;;29.08;22.55;;;16.60;99.90;;;;;;4977380;28;20057;-87
2023/05/15 11:35:21;;;;;;;29.08;22.33;;;16.40;99.90;;;;;;5002661;28;20113;-87
2023/05/15 11:37:49;;;;;;;29.67;23.17;;;16.30;99.90;;;;;;4976574;28;20030;-88
2023/05/15 11:40:24;;;;;;;30.50;23.48;;;16.30;99.90;;;;;;4970132;28;20029;-89
2023/05/15 11:43:01;;;;;;;28.48;22.63;;;16.40;99.90;;;;;;4975779;28;20081;-88
2023/05/15 11:45:31;;;;;;;28.98;22.58;;;16.50;99.90;;;;;;4984396;28;20030;-88
2023/05/15 11:48:01;;;;;;;31.85;24.27;;;16.60;99.90;;;;;;4990616;28;20034;-88
2023/05/15 11:50:27;;;;;;;30.90;23.75;;;16.60;99.90;;;;;;4976042;28;20027;-90
2023/05/15 11:52:53;;;;;;;26.98;22.05;;;16.60;99.90;;;;;;4988944;28;20031;-89
2023/05/15 11:55:20;;;;;;;30.20;23.33;;;16.70;99.90;;;;;;4966731;28;20033;-88
2023/05/15 11:57:46;;;;;;;31.30;24.48;;;16.70;99.90;;;;;;4966036;28;22078;-88
2023/05/15 12:00:13;;;;;;;32.45;23.73;;;16.70;99.90;;;;;;4970477;28;20038;-89
2023/05/15 12:02:39;;;;;;;33.50;25.15;;;16.60;99.90;;;;;;4977634;28;20030;-89
2023/05/15 12:05:08;;;;;;;33.88;25.48;;;16.40;99.90;;;;;;4969764;28;20034;-89
2023/05/15 12:07:39;;;;;;;37.85;25.52;;;16.30;99.90;;;;;;4970405;28;20044;-89
2023/05/15 12:10:08;;;;;;;34.35;24.30;;;16.20;99.90;;;;;;4965903;28;20038;-89
2023/05/15 12:12:36;;;;;;;34.53;26.35;;;16.20;99.90;;;;;;4968383;28;20030;-89
2023/05/15 12:15:01;;;;;;;34.92;25.48;;;16.10;99.90;;;;;;4972617;28;20030;-88
2023/05/15 12:17:27;;;;;;;35.35;24.70;;;16.10;99.90;;;;;;4969159;28;20509;-88
2023/05/15 12:19:54;;;;;;;35.97;26.33;;;16.10;99.90;;;;;;4971605;28;20423;-89
2023/05/15 12:22:20;;;;;;;37.55;26.65;;;16.10;99.90;;;;;;4992188;28;20029;-88
2023/05/15 12:24:46;;;;;;;37.88;26.75;;;16.00;99.90;;;;;;4975738;28;20049;-88
2023/05/15 12:27:13;;;;;;;35.95;26.60;;;16.00;99.90;;;;;;4975178;28;20030;-89